Time;durP1;ratioP1;P1;durP2;ratioP2;P2;SDS_P1;SDS_P2;PMS_P1;PMS_P2;Temp;Humidity;BMP_temperature;BMP_pressure;BME280_temperature;BME280_humidity;BME280_pressure;Samples;Min_cycle;Max_cycle;Signal;HPM_P1;HPM_P2
2023/08/14 00:12:25;;;;;;;5.60;4.15;;;;;;;23.37;53.29;100725.03;41336857;28;20628;-81
2023/08/14 00:32:25;;;;;;;5.85;4.05;;;;;;;23.32;53.45;100732.53;41335115;28;20038;-77
2023/08/14 00:52:31;;;;;;;6.10;3.65;;;;;;;22.57;53.36;100623.16;41351540;28;20046;-76
2023/08/14 01:12:53;;;;;;;4.93;3.67;;;;;;;22.99;53.54;100732.44;41343143;28;20049;-76
2023/08/14 01:32:54;;;;;;;4.78;3.75;;;;;;;22.93;53.71;100726.81;41518404;28;20065;-77
2023/08/14 01:52:58;;;;;;;4.53;3.95;;;;;;;22.94;53.75;100742.53;41529342;28;20097;-76
2023/08/14 02:12:58;;;;;;;3.90;3.38;;;;;;;22.87;53.66;100757.16;41518248;28;20096;-77
2023/08/14 02:33:01;;;;;;;4.63;3.70;;;;;;;22.71;53.75;100757.53;41522654;28;20054;-77
2023/08/14 02:53:01;;;;;;;7.35;4.00;;;;;;;22.59;53.79;100747.94;41523623;28;20056;-76
2023/08/14 03:13:05;;;;;;;6.80;3.88;;;;;;;22.53;53.87;100765.06;41517665;28;20451;-75
2023/08/14 03:33:05;;;;;;;8.40;4.35;;;;;;;22.51;53.91;100775.75;41516751;28;20353;-77
2023/08/14 03:53:06;;;;;;;7.57;3.88;;;;;;;22.37;53.94;100775.94;41484251;28;20041;-76
2023/08/14 04:13:06;;;;;;;6.82;4.05;;;;;;;22.11;54.59;100802.50;41490494;28;20469;-72
2023/08/14 04:33:07;;;;;;;11.65;7.03;;;;;;;21.61;55.87;100776.28;41464629;28;20052;-76
2023/08/14 04:53:07;;;;;;;5.75;3.92;;;;;;;22.36;54.20;100798.84;41479112;28;20516;-75
2023/08/14 05:13:08;;;;;;;7.15;4.18;;;;;;;21.89;55.80;100801.44;41476613;28;20050;-79
2023/08/14 05:33:08;;;;;;;9.07;4.45;;;;;;;22.18;55.16;100827.47;41459313;28;20088;-78
2023/08/14 05:53:15;;;;;;;6.10;4.65;;;;;;;22.42;54.98;100844.22;41489185;28;20053;-80
2023/08/14 06:13:15;;;;;;;8.88;4.95;;;;;;;22.54;54.63;100838.88;41525395;28;20172;-75
2023/08/14 06:33:16;;;;;;;10.23;4.93;;;;;;;22.83;53.84;100833.13;41487483;28;20037;-76
2023/08/14 06:53:16;;;;;;;8.85;4.35;;;;;;;23.01;52.97;100825.59;41485823;28;20195;-80
2023/08/14 07:13:17;;;;;;;6.60;3.97;;;;;;;23.38;51.26;100864.16;41495251;28;20050;-81
2023/08/14 07:33:17;;;;;;;6.78;3.72;;;;;;;23.48;50.00;100828.06;41479973;28;20034;-83
2023/08/14 07:53:18;;;;;;;4.10;3.38;;;;;;;23.95;50.13;100850.84;41552649;28;20645;-80
2023/08/14 08:13:18;;;;;;;3.88;3.28;;;;;;;24.12;50.08;100847.63;41520030;28;20050;-82
2023/08/14 08:33:21;;;;;;;6.63;3.25;;;;;;;24.26;47.80;100812.06;41508019;28;20046;-85
2023/08/14 08:53:22;;;;;;;3.20;2.80;;;;;;;24.58;49.03;100842.94;41488931;28;20057;-94
2023/08/14 09:13:23;;;;;;;4.18;2.90;;;;;;;24.76;48.31;100829.13;41508895;28;20101;-87
2023/08/14 09:33:23;;;;;;;6.38;2.85;;;;;;;24.92;46.18;100818.88;41522844;28;20069;-81
2023/08/14 09:53:23;;;;;;;4.30;2.75;;;;;;;25.24;44.81;100807.28;41473632;28;20616;-86
2023/08/14 10:13:25;;;;;;;3.38;2.67;;;;;;;25.41;44.75;100802.31;41411826;28;20062;-87
2023/08/14 10:33:26;;;;;;;3.47;2.47;;;;;;;25.71;44.09;100797.88;41432212;28;20106;-82
2023/08/14 10:53:29;;;;;;;6.50;2.88;;;;;;;25.83;43.71;100761.44;41543828;28;20041;-72
2023/08/14 11:13:33;;;;;;;3.42;2.58;;;;;;;26.08;43.28;100736.16;41488242;28;20054;-75
2023/08/14 11:33:33;;;;;;;6.55;2.83;;;;;;;26.31;42.71;100739.31;41483905;28;20057;-79
2023/08/14 11:53:34;;;;;;;6.03;2.70;;;;;;;26.37;41.61;100703.41;41528310;28;20064;-80
2023/08/14 12:13:34;;;;;;;2.55;2.33;;;;;;;26.63;40.81;100721.31;41515518;28;20049;-83
2023/08/14 12:33:41;;;;;;;3.15;2.40;;;;;;;26.55;40.45;100662.78;41546038;28;20134;-79
2023/08/14 12:53:43;;;;;;;3.28;2.55;;;;;;;26.80;40.54;100672.72;41534224;28;20449;-85
2023/08/14 13:13:44;;;;;;;4.80;2.63;;;;;;;27.20;40.98;100683.94;41485176;28;20046;-77
2023/08/14 13:33:46;;;;;;;6.40;2.80;;;;;;;26.98;42.04;100667.44;41548519;28;20053;-76
2023/08/14 13:53:47;;;;;;;5.75;3.47;;;;;;;27.10;41.50;100656.59;41517975;28;20089;-75
2023/08/14 14:13:47;;;;;;;15.30;7.60;;;;;;;27.04;41.29;100636.78;41545326;28;20088;-78
2023/08/14 14:33:47;;;;;;;11.30;4.13;;;;;;;27.13;41.48;100635.03;41482912;28;20045;-77
2023/08/14 14:53:48;;;;;;;4.18;2.70;;;;;;;27.28;41.07;100622.03;41478536;28;20038;-80
2023/08/14 15:13:50;;;;;;;4.13;2.22;;;;;;;27.05;41.27;100566.69;41494881;28;20505;-80
2023/08/14 15:34:06;;;;;;;4.25;2.40;;;;;;;27.34;41.33;100608.09;41434809;28;20046;-74
2023/08/14 15:54:07;;;;;;;4.60;2.40;;;;;;;27.24;41.69;100576.28;41394438;28;20034;-73
2023/08/14 16:14:07;;;;;;;6.43;3.20;;;;;;;27.39;40.90;100583.72;41406281;28;20045;-75
2023/08/14 16:34:09;;;;;;;8.05;3.17;;;;;;;27.19;40.39;100479.41;41471434;28;20182;-71
2023/08/14 16:54:10;;;;;;;3.27;2.63;;;;;;;27.42;40.82;100562.19;41457460;28;20132;-78
2023/08/14 17:14:11;;;;;;;3.63;2.40;;;;;;;26.68;42.87;100543.75;41444979;28;20485;-78
2023/08/14 17:34:11;;;;;;;3.63;2.53;;;;;;;26.86;42.26;100596.09;41471013;28;20061;-78
2023/08/14 17:54:12;;;;;;;3.97;2.38;;;;;;;26.28;41.80;100514.00;41479573;28;20471;-81
2023/08/14 18:14:14;;;;;;;8.55;2.95;;;;;;;26.73;43.01;100630.94;41497408;28;20050;-79
2023/08/14 18:34:14;;;;;;;6.18;3.40;;;;;;;26.17;43.77;100602.59;41484864;28;20041;-84
2023/08/14 18:54:15;;;;;;;9.60;3.28;;;;;;;26.14;45.29;100660.44;41484554;28;20046;-80
2023/08/14 19:14:16;;;;;;;7.07;3.75;;;;;;;25.88;47.20;100691.06;41497928;28;20389;-78
2023/08/14 19:34:17;;;;;;;7.60;4.50;;;;;;;25.49;48.97;100661.13;41480589;28;20053;-77
2023/08/14 19:54:19;;;;;;;7.70;4.45;;;;;;;25.24;50.18;100687.16;41488224;28;20050;-71
2023/08/14 20:14:20;;;;;;;10.80;5.97;;;;;;;25.10;49.66;100653.97;41500322;28;20042;-76
2023/08/14 20:34:22;;;;;;;10.35;5.07;;;;;;;24.29;50.22;100580.75;41480997;28;20038;-76
2023/08/14 20:54:22;;;;;;;8.98;4.82;;;;;;;23.94;50.67;100550.28;41515099;28;20038;-77
2023/08/14 21:14:23;;;;;;;9.57;4.80;;;;;;;23.17;51.48;100449.31;41506052;28;20022;-77
2023/08/14 21:34:23;;;;;;;7.38;4.75;;;;;;;22.15;50.96;100307.28;41395493;28;20117;-77
2023/08/14 21:54:24;;;;;;;8.02;4.40;;;;;;;24.48;51.88;100700.91;41478006;28;20441;-76
2023/08/14 22:14:24;;;;;;;8.10;4.32;;;;;;;23.07;51.61;100504.69;41527780;28;20535;-76
2023/08/14 22:34:25;;;;;;;9.82;5.70;;;;;;;22.37;52.01;100398.66;41526784;28;20362;-75
2023/08/14 22:54:26;;;;;;;11.70;7.03;;;;;;;23.31;52.85;100572.31;41513336;28;20058;-74
2023/08/14 23:14:26;;;;;;;15.75;8.95;;;;;;;23.52;53.30;100614.56;41438877;28;20046;-75
2023/08/14 23:34:27;;;;;;;16.40;9.10;;;;;;;21.24;53.87;100289.09;41518305;28;20038;-75
2023/08/14 23:54:27;;;;;;;11.68;7.72;;;;;;;21.24;54.11;100318.06;41514433;28;20121;-76
